sensor_id;sensor_type;location;lat;lon;timestamp;temperature;humidity
41262;DHT22;29629;52.532;13.352;2023-11-21T00:01:07;8.90;99.90
41262;DHT22;29629;52.532;13.352;2023-11-21T00:03:34;8.80;99.90
41262;DHT22;29629;52.532;13.352;2023-11-21T00:06:01;8.90;99.90
41262;DHT22;29629;52.532;13.352;2023-11-21T00:08:29;8.80;99.90
41262;DHT22;29629;52.532;13.352;2023-11-21T00:10:56;8.70;99.90
41262;DHT22;29629;52.532;13.352;2023-11-21T00:13:26;8.70;99.90
41262;DHT22;29629;52.532;13.352;2023-11-21T00:15:53;8.60;99.90
41262;DHT22;29629;52.532;13.352;2023-11-21T00:18:20;8.60;99.90
41262;DHT22;29629;52.532;13.352;2023-11-21T00:20:47;8.60;99.90
41262;DHT22;29629;52.532;13.352;2023-11-21T00:23:14;8.50;99.90
41262;DHT22;29629;52.532;13.352;2023-11-21T00:25:43;8.50;99.90
41262;DHT22;29629;52.532;13.352;2023-11-21T00:28:10;8.50;99.90
41262;DHT22;29629;52.532;13.352;2023-11-21T00:30:37;8.50;99.90
41262;DHT22;29629;52.532;13.352;2023-11-21T00:33:07;8.50;99.90
41262;DHT22;29629;52.532;13.352;2023-11-21T00:35:34;8.40;99.90
41262;DHT22;29629;52.532;13.352;2023-11-21T00:38:01;8.30;99.90
41262;DHT22;29629;52.532;13.352;2023-11-21T00:40:30;8.30;99.90
41262;DHT22;29629;52.532;13.352;2023-11-21T00:42:59;8.30;99.90
41262;DHT22;29629;52.532;13.352;2023-11-21T00:45:26;8.20;99.90
41262;DHT22;29629;52.532;13.352;2023-11-21T00:47:53;8.10;99.90
41262;DHT22;29629;52.532;13.352;2023-11-21T00:50:21;8.20;99.90
41262;DHT22;29629;52.532;13.352;2023-11-21T00:52:48;8.20;99.90
41262;DHT22;29629;52.532;13.352;2023-11-21T00:55:17;8.20;99.90
41262;DHT22;29629;52.532;13.352;2023-11-21T00:57:44;8.10;99.90
41262;DHT22;29629;52.532;13.352;2023-11-21T01:00:13;8.10;99.90
41262;DHT22;29629;52.532;13.352;2023-11-21T01:02:43;8.10;99.90
41262;DHT22;29629;52.532;13.352;2023-11-21T01:05:10;8.10;99.90
41262;DHT22;29629;52.532;13.352;2023-11-21T01:07:37;8.00;99.90
41262;DHT22;29629;52.532;13.352;2023-11-21T01:10:04;8.00;99.90
41262;DHT22;29629;52.532;13.352;2023-11-21T01:12:34;8.00;99.90
41262;DHT22;29629;52.532;13.352;2023-11-21T01:15:01;7.90;99.90
41262;DHT22;29629;52.532;13.352;2023-11-21T01:17:29;7.90;99.90
41262;DHT22;29629;52.532;13.352;2023-11-21T01:19:57;7.90;99.90
41262;DHT22;29629;52.532;13.352;2023-11-21T01:22:24;7.90;99.90
41262;DHT22;29629;52.532;13.352;2023-11-21T01:24:52;7.90;99.90
41262;DHT22;29629;52.532;13.352;2023-11-21T01:27:19;7.90;99.90
41262;DHT22;29629;52.532;13.352;2023-11-21T01:29:46;7.90;99.90
41262;DHT22;29629;52.532;13.352;2023-11-21T01:32:13;7.90;99.90
41262;DHT22;29629;52.532;13.352;2023-11-21T01:34:41;7.80;99.90
41262;DHT22;29629;52.532;13.352;2023-11-21T01:37:08;7.80;99.90
41262;DHT22;29629;52.532;13.352;2023-11-21T01:39:37;7.80;99.90
41262;DHT22;29629;52.532;13.352;2023-11-21T01:42:05;7.80;99.90
41262;DHT22;29629;52.532;13.352;2023-11-21T01:44:33;7.80;99.90
41262;DHT22;29629;52.532;13.352;2023-11-21T01:47:00;7.80;99.90
41262;DHT22;29629;52.532;13.352;2023-11-21T01:49:30;7.80;99.90
41262;DHT22;29629;52.532;13.352;2023-11-21T01:51:59;7.70;99.90
41262;DHT22;29629;52.532;13.352;2023-11-21T01:54:26;7.70;99.90
41262;DHT22;29629;52.532;13.352;2023-11-21T01:56:57;7.60;99.90
41262;DHT22;29629;52.532;13.352;2023-11-21T01:59:32;7.60;99.90
41262;DHT22;29629;52.532;13.352;2023-11-21T02:02:00;7.60;99.90
41262;DHT22;29629;52.532;13.352;2023-11-21T02:04:28;7.60;99.90
41262;DHT22;29629;52.532;13.352;2023-11-21T02:06:55;7.60;99.90
41262;DHT22;29629;52.532;13.352;2023-11-21T02:09:25;7.60;99.90
41262;DHT22;29629;52.532;13.352;2023-11-21T02:11:53;7.50;99.90
41262;DHT22;29629;52.532;13.352;2023-11-21T02:14:20;7.50;99.90
41262;DHT22;29629;52.532;13.352;2023-11-21T02:16:48;7.50;99.90
41262;DHT22;29629;52.532;13.352;2023-11-21T02:19:18;7.50;99.90
41262;DHT22;29629;52.532;13.352;2023-11-21T02:21:49;7.50;99.90
41262;DHT22;29629;52.532;13.352;2023-11-21T02:24:18;7.50;99.90
41262;DHT22;29629;52.532;13.352;2023-11-21T02:26:46;7.50;99.90
41262;DHT22;29629;52.532;13.352;2023-11-21T02:29:13;7.40;99.90
41262;DHT22;29629;52.532;13.352;2023-11-21T02:31:42;7.40;99.90
41262;DHT22;29629;52.532;13.352;2023-11-21T02:34:13;7.40;99.90
41262;DHT22;29629;52.532;13.352;2023-11-21T02:36:40;7.40;99.90
41262;DHT22;29629;52.532;13.352;2023-11-21T02:39:08;7.30;99.90
41262;DHT22;29629;52.532;13.352;2023-11-21T02:44:04;7.30;99.90
41262;DHT22;29629;52.532;13.352;2023-11-21T02:46:32;7.30;99.90
41262;DHT22;29629;52.532;13.352;2023-11-21T02:48:59;7.20;99.90
41262;DHT22;29629;52.532;13.352;2023-11-21T02:51:26;7.30;99.90
41262;DHT22;29629;52.532;13.352;2023-11-21T02:53:53;7.30;99.90
41262;DHT22;29629;52.532;13.352;2023-11-21T02:56:24;7.20;99.90
41262;DHT22;29629;52.532;13.352;2023-11-21T02:58:52;7.20;99.90
41262;DHT22;29629;52.532;13.352;2023-11-21T03:01:19;7.20;99.90
41262;DHT22;29629;52.532;13.352;2023-11-21T03:03:46;7.20;99.90
41262;DHT22;29629;52.532;13.352;2023-11-21T03:06:16;7.20;99.90
41262;DHT22;29629;52.532;13.352;2023-11-21T03:08:43;7.20;99.90
41262;DHT22;29629;52.532;13.352;2023-11-21T03:11:10;7.20;99.90
41262;DHT22;29629;52.532;13.352;2023-11-21T03:13:38;7.30;99.90
41262;DHT22;29629;52.532;13.352;2023-11-21T03:16:08;7.30;99.90
41262;DHT22;29629;52.532;13.352;2023-11-21T03:18:35;7.20;99.90
41262;DHT22;29629;52.532;13.352;2023-11-21T03:21:03;7.30;99.90
41262;DHT22;29629;52.532;13.352;2023-11-21T03:23:30;7.20;99.90
41262;DHT22;29629;52.532;13.352;2023-11-21T03:25:57;7.20;99.90
41262;DHT22;29629;52.532;13.352;2023-11-21T03:28:24;7.20;99.90
41262;DHT22;29629;52.532;13.352;2023-11-21T03:30:50;7.20;99.90
41262;DHT22;29629;52.532;13.352;2023-11-21T03:33:19;7.20;99.90
41262;DHT22;29629;52.532;13.352;2023-11-21T03:35:46;7.10;99.90
41262;DHT22;29629;52.532;13.352;2023-11-21T03:38:13;7.20;99.90
41262;DHT22;29629;52.532;13.352;2023-11-21T03:40:40;7.20;99.90
41262;DHT22;29629;52.532;13.352;2023-11-21T03:43:07;7.10;99.90
41262;DHT22;29629;52.532;13.352;2023-11-21T03:45:34;7.10;99.90
41262;DHT22;29629;52.532;13.352;2023-11-21T03:48:00;7.10;99.90
41262;DHT22;29629;52.532;13.352;2023-11-21T03:50:29;7.10;99.90
41262;DHT22;29629;52.532;13.352;2023-11-21T03:52:56;7.10;99.90
41262;DHT22;29629;52.532;13.352;2023-11-21T03:55:23;7.10;99.90
41262;DHT22;29629;52.532;13.352;2023-11-21T03:57:50;7.10;99.90
41262;DHT22;29629;52.532;13.352;2023-11-21T04:00:18;7.00;99.90
41262;DHT22;29629;52.532;13.352;2023-11-21T04:02:46;7.00;99.90
41262;DHT22;29629;52.532;13.352;2023-11-21T04:05:13;7.00;99.90
41262;DHT22;29629;52.532;13.352;2023-11-21T04:07:41;7.00;99.90
41262;DHT22;29629;52.532;13.352;2023-11-21T04:10:08;6.90;99.90
41262;DHT22;29629;52.532;13.352;2023-11-21T04:12:38;7.00;99.90
41262;DHT22;29629;52.532;13.352;2023-11-21T04:15:05;7.00;99.90
41262;DHT22;29629;52.532;13.352;2023-11-21T04:17:34;7.00;99.90
41262;DHT22;29629;52.532;13.352;2023-11-21T04:20:02;7.00;99.90
41262;DHT22;29629;52.532;13.352;2023-11-21T04:22:29;7.00;99.90
41262;DHT22;29629;52.532;13.352;2023-11-21T04:24:57;7.00;99.90
41262;DHT22;29629;52.532;13.352;2023-11-21T04:27:24;7.00;99.90
41262;DHT22;29629;52.532;13.352;2023-11-21T04:29:51;6.90;99.90
41262;DHT22;29629;52.532;13.352;2023-11-21T04:32:18;6.90;99.90
41262;DHT22;29629;52.532;13.352;2023-11-21T04:34:45;7.00;99.90
41262;DHT22;29629;52.532;13.352;2023-11-21T04:37:12;6.90;99.90
41262;DHT22;29629;52.532;13.352;2023-11-21T04:39:38;6.90;99.90
41262;DHT22;29629;52.532;13.352;2023-11-21T04:42:07;6.90;99.90
41262;DHT22;29629;52.532;13.352;2023-11-21T04:44:34;6.90;99.90
41262;DHT22;29629;52.532;13.352;2023-11-21T04:47:00;6.90;99.90
41262;DHT22;29629;52.532;13.352;2023-11-21T04:49:30;6.90;99.90
41262;DHT22;29629;52.532;13.352;2023-11-21T04:51:57;6.90;99.90
41262;DHT22;29629;52.532;13.352;2023-11-21T04:54:23;6.90;99.90
41262;DHT22;29629;52.532;13.352;2023-11-21T04:56:50;6.90;99.90
41262;DHT22;29629;52.532;13.352;2023-11-21T04:59:19;6.90;99.90
41262;DHT22;29629;52.532;13.352;2023-11-21T05:01:46;6.90;99.90
41262;DHT22;29629;52.532;13.352;2023-11-21T05:04:12;6.90;99.90
41262;DHT22;29629;52.532;13.352;2023-11-21T05:06:40;6.80;99.90
41262;DHT22;29629;52.532;13.352;2023-11-21T05:09:07;6.80;99.90
41262;DHT22;29629;52.532;13.352;2023-11-21T05:11:37;6.80;99.90
41262;DHT22;29629;52.532;13.352;2023-11-21T05:14:06;6.90;99.90
41262;DHT22;29629;52.532;13.352;2023-11-21T05:16:35;6.90;99.90
41262;DHT22;29629;52.532;13.352;2023-11-21T05:19:03;6.80;99.90
41262;DHT22;29629;52.532;13.352;2023-11-21T05:21:31;6.80;99.90
41262;DHT22;29629;52.532;13.352;2023-11-21T05:23:58;6.80;99.90
41262;DHT22;29629;52.532;13.352;2023-11-21T05:26:25;6.80;99.90
41262;DHT22;29629;52.532;13.352;2023-11-21T05:28:52;6.70;99.90
41262;DHT22;29629;52.532;13.352;2023-11-21T05:31:19;6.80;99.90
41262;DHT22;29629;52.532;13.352;2023-11-21T05:33:47;6.70;99.90
41262;DHT22;29629;52.532;13.352;2023-11-21T05:36:14;6.70;99.90
41262;DHT22;29629;52.532;13.352;2023-11-21T05:38:41;6.70;99.90
41262;DHT22;29629;52.532;13.352;2023-11-21T05:41:08;6.70;99.90
41262;DHT22;29629;52.532;13.352;2023-11-21T05:43:36;6.70;99.90
41262;DHT22;29629;52.532;13.352;2023-11-21T05:46:03;6.70;99.90
41262;DHT22;29629;52.532;13.352;2023-11-21T05:48:31;6.70;99.90
41262;DHT22;29629;52.532;13.352;2023-11-21T05:50:59;6.60;99.90
41262;DHT22;29629;52.532;13.352;2023-11-21T05:53:27;6.60;99.90
41262;DHT22;29629;52.532;13.352;2023-11-21T05:55:54;6.60;99.90
41262;DHT22;29629;52.532;13.352;2023-11-21T05:58:21;6.60;99.90
41262;DHT22;29629;52.532;13.352;2023-11-21T06:00:48;6.60;99.90
41262;DHT22;29629;52.532;13.352;2023-11-21T06:03:15;6.60;99.90
41262;DHT22;29629;52.532;13.352;2023-11-21T06:05:42;6.60;99.90
41262;DHT22;29629;52.532;13.352;2023-11-21T06:08:11;6.60;99.90
41262;DHT22;29629;52.532;13.352;2023-11-21T06:10:38;6.50;99.90
41262;DHT22;29629;52.532;13.352;2023-11-21T06:13:05;6.60;99.90
41262;DHT22;29629;52.532;13.352;2023-11-21T06:15:32;6.50;99.90
41262;DHT22;29629;52.532;13.352;2023-11-21T06:18:00;6.50;99.90
41262;DHT22;29629;52.532;13.352;2023-11-21T06:20:26;6.50;99.90
41262;DHT22;29629;52.532;13.352;2023-11-21T06:22:53;6.50;99.90
41262;DHT22;29629;52.532;13.352;2023-11-21T06:25:21;6.50;99.90
41262;DHT22;29629;52.532;13.352;2023-11-21T06:27:49;6.40;99.90
41262;DHT22;29629;52.532;13.352;2023-11-21T06:30:17;6.40;99.90
41262;DHT22;29629;52.532;13.352;2023-11-21T06:32:45;6.40;99.90
41262;DHT22;29629;52.532;13.352;2023-11-21T06:35:12;6.40;99.90
41262;DHT22;29629;52.532;13.352;2023-11-21T06:37:40;6.40;99.90
41262;DHT22;29629;52.532;13.352;2023-11-21T06:40:13;6.30;99.90
41262;DHT22;29629;52.532;13.352;2023-11-21T06:42:42;6.30;99.90
41262;DHT22;29629;52.532;13.352;2023-11-21T06:45:10;6.40;99.90
41262;DHT22;29629;52.532;13.352;2023-11-21T06:47:37;6.40;99.90
41262;DHT22;29629;52.532;13.352;2023-11-21T06:50:05;6.40;99.90
41262;DHT22;29629;52.532;13.352;2023-11-21T06:52:32;6.40;99.90
41262;DHT22;29629;52.532;13.352;2023-11-21T06:54:59;6.40;99.90
41262;DHT22;29629;52.532;13.352;2023-11-21T06:57:26;6.40;99.90
41262;DHT22;29629;52.532;13.352;2023-11-21T06:59:55;6.30;99.90
41262;DHT22;29629;52.532;13.352;2023-11-21T07:02:23;6.30;99.90
41262;DHT22;29629;52.532;13.352;2023-11-21T07:04:49;6.30;99.90
41262;DHT22;29629;52.532;13.352;2023-11-21T07:07:17;6.30;99.90
41262;DHT22;29629;52.532;13.352;2023-11-21T07:09:45;6.30;99.90
41262;DHT22;29629;52.532;13.352;2023-11-21T07:12:12;6.30;99.90
41262;DHT22;29629;52.532;13.352;2023-11-21T07:14:39;6.30;99.90
41262;DHT22;29629;52.532;13.352;2023-11-21T07:17:10;6.30;99.90
41262;DHT22;29629;52.532;13.352;2023-11-21T07:19:37;6.30;99.90
41262;DHT22;29629;52.532;13.352;2023-11-21T07:22:05;6.30;99.90
41262;DHT22;29629;52.532;13.352;2023-11-21T07:24:32;6.30;99.90
41262;DHT22;29629;52.532;13.352;2023-11-21T07:26:58;6.30;99.90
41262;DHT22;29629;52.532;13.352;2023-11-21T07:29:26;6.30;99.90
41262;DHT22;29629;52.532;13.352;2023-11-21T07:31:55;6.30;99.90
41262;DHT22;29629;52.532;13.352;2023-11-21T07:34:23;6.30;99.90
41262;DHT22;29629;52.532;13.352;2023-11-21T07:36:50;6.30;99.90
41262;DHT22;29629;52.532;13.352;2023-11-21T07:39:17;6.30;99.90
41262;DHT22;29629;52.532;13.352;2023-11-21T07:41:44;6.30;99.90
41262;DHT22;29629;52.532;13.352;2023-11-21T07:44:14;6.30;99.90
41262;DHT22;29629;52.532;13.352;2023-11-21T07:46:41;6.30;99.90
41262;DHT22;29629;52.532;13.352;2023-11-21T07:49:08;6.30;99.90
41262;DHT22;29629;52.532;13.352;2023-11-21T07:51:37;6.30;99.90
41262;DHT22;29629;52.532;13.352;2023-11-21T07:54:04;6.30;99.90
41262;DHT22;29629;52.532;13.352;2023-11-21T07:56:31;6.30;99.90
41262;DHT22;29629;52.532;13.352;2023-11-21T07:58:58;6.40;99.90
41262;DHT22;29629;52.532;13.352;2023-11-21T08:01:25;6.40;99.90
41262;DHT22;29629;52.532;13.352;2023-11-21T08:03:53;6.30;99.90
41262;DHT22;29629;52.532;13.352;2023-11-21T08:06:23;6.30;99.90
41262;DHT22;29629;52.532;13.352;2023-11-21T08:08:52;6.30;99.90
41262;DHT22;29629;52.532;13.352;2023-11-21T08:11:19;6.30;99.90
41262;DHT22;29629;52.532;13.352;2023-11-21T08:13:46;6.30;99.90
41262;DHT22;29629;52.532;13.352;2023-11-21T08:16:14;6.30;99.90
41262;DHT22;29629;52.532;13.352;2023-11-21T08:18:42;6.30;99.90
41262;DHT22;29629;52.532;13.352;2023-11-21T08:21:09;6.30;99.90
41262;DHT22;29629;52.532;13.352;2023-11-21T08:23:37;6.30;99.90
41262;DHT22;29629;52.532;13.352;2023-11-21T08:26:06;6.20;99.90
41262;DHT22;29629;52.532;13.352;2023-11-21T08:28:34;6.20;99.90
41262;DHT22;29629;52.532;13.352;2023-11-21T08:31:01;6.20;99.90
41262;DHT22;29629;52.532;13.352;2023-11-21T08:33:28;6.20;99.90
41262;DHT22;29629;52.532;13.352;2023-11-21T08:35:55;6.20;99.90
41262;DHT22;29629;52.532;13.352;2023-11-21T08:38:22;6.20;99.90
41262;DHT22;29629;52.532;13.352;2023-11-21T08:40:49;6.20;99.90
41262;DHT22;29629;52.532;13.352;2023-11-21T08:43:17;6.20;99.90
41262;DHT22;29629;52.532;13.352;2023-11-21T08:45:45;6.10;99.90
41262;DHT22;29629;52.532;13.352;2023-11-21T08:48:12;6.20;99.90
41262;DHT22;29629;52.532;13.352;2023-11-21T08:50:39;6.20;99.90
41262;DHT22;29629;52.532;13.352;2023-11-21T08:53:06;6.20;99.90
41262;DHT22;29629;52.532;13.352;2023-11-21T08:55:33;6.30;99.90
41262;DHT22;29629;52.532;13.352;2023-11-21T08:58:02;6.30;99.90
41262;DHT22;29629;52.532;13.352;2023-11-21T09:00:32;6.30;99.90
41262;DHT22;29629;52.532;13.352;2023-11-21T09:02:59;6.30;99.90
41262;DHT22;29629;52.532;13.352;2023-11-21T09:05:27;6.30;99.90
41262;DHT22;29629;52.532;13.352;2023-11-21T09:07:54;6.30;99.90
41262;DHT22;29629;52.532;13.352;2023-11-21T09:10:21;6.30;99.90
41262;DHT22;29629;52.532;13.352;2023-11-21T09:12:49;6.30;99.90
41262;DHT22;29629;52.532;13.352;2023-11-21T09:15:17;6.30;99.90
41262;DHT22;29629;52.532;13.352;2023-11-21T09:17:47;6.20;99.90
41262;DHT22;29629;52.532;13.352;2023-11-21T09:20:14;6.20;99.90
41262;DHT22;29629;52.532;13.352;2023-11-21T09:22:41;6.20;99.90
41262;DHT22;29629;52.532;13.352;2023-11-21T09:25:10;6.20;99.90
41262;DHT22;29629;52.532;13.352;2023-11-21T09:27:38;6.40;99.90
41262;DHT22;29629;52.532;13.352;2023-11-21T09:30:06;6.30;99.90
41262;DHT22;29629;52.532;13.352;2023-11-21T09:32:35;6.30;99.90
41262;DHT22;29629;52.532;13.352;2023-11-21T09:35:05;6.30;99.90
41262;DHT22;29629;52.532;13.352;2023-11-21T09:37:33;6.30;99.90
41262;DHT22;29629;52.532;13.352;2023-11-21T09:40:01;6.20;99.90
41262;DHT22;29629;52.532;13.352;2023-11-21T09:42:32;6.30;99.90
41262;DHT22;29629;52.532;13.352;2023-11-21T09:45:05;6.30;99.90
41262;DHT22;29629;52.532;13.352;2023-11-21T09:47:35;6.30;99.90
41262;DHT22;29629;52.532;13.352;2023-11-21T09:50:07;6.30;99.90
41262;DHT22;29629;52.532;13.352;2023-11-21T09:52:42;6.20;99.90
41262;DHT22;29629;52.532;13.352;2023-11-21T09:55:11;6.20;99.90
41262;DHT22;29629;52.532;13.352;2023-11-21T09:57:41;6.20;99.90
41262;DHT22;29629;52.532;13.352;2023-11-21T10:00:10;6.10;99.90
41262;DHT22;29629;52.532;13.352;2023-11-21T10:02:38;6.00;99.90
41262;DHT22;29629;52.532;13.352;2023-11-21T10:05:08;6.10;99.90
41262;DHT22;29629;52.532;13.352;2023-11-21T10:07:39;6.10;99.90
41262;DHT22;29629;52.532;13.352;2023-11-21T10:10:07;6.10;99.90
41262;DHT22;29629;52.532;13.352;2023-11-21T10:12:35;6.10;99.90
41262;DHT22;29629;52.532;13.352;2023-11-21T10:15:08;6.00;99.90
41262;DHT22;29629;52.532;13.352;2023-11-21T10:17:38;6.00;99.90
41262;DHT22;29629;52.532;13.352;2023-11-21T10:20:10;6.10;99.90
41262;DHT22;29629;52.532;13.352;2023-11-21T10:22:40;6.00;99.90
41262;DHT22;29629;52.532;13.352;2023-11-21T10:25:08;6.10;99.90
41262;DHT22;29629;52.532;13.352;2023-11-21T10:27:35;6.00;99.90
41262;DHT22;29629;52.532;13.352;2023-11-21T10:30:03;5.90;99.90
41262;DHT22;29629;52.532;13.352;2023-11-21T10:32:30;5.90;99.90
41262;DHT22;29629;52.532;13.352;2023-11-21T10:34:58;6.00;99.90
41262;DHT22;29629;52.532;13.352;2023-11-21T10:37:30;6.00;99.90
41262;DHT22;29629;52.532;13.352;2023-11-21T10:39:58;5.90;99.90
41262;DHT22;29629;52.532;13.352;2023-11-21T10:42:25;5.90;99.90
41262;DHT22;29629;52.532;13.352;2023-11-21T10:44:52;5.90;99.90
41262;DHT22;29629;52.532;13.352;2023-11-21T10:47:20;5.90;99.90
41262;DHT22;29629;52.532;13.352;2023-11-21T10:49:48;5.90;99.90
41262;DHT22;29629;52.532;13.352;2023-11-21T10:52:15;6.00;99.90
41262;DHT22;29629;52.532;13.352;2023-11-21T10:54:46;5.90;99.90
41262;DHT22;29629;52.532;13.352;2023-11-21T10:57:17;6.00;99.90
41262;DHT22;29629;52.532;13.352;2023-11-21T10:59:47;5.90;99.90
41262;DHT22;29629;52.532;13.352;2023-11-21T11:02:22;5.90;99.90
41262;DHT22;29629;52.532;13.352;2023-11-21T11:04:50;5.90;99.90
41262;DHT22;29629;52.532;13.352;2023-11-21T11:07:21;5.90;99.90
41262;DHT22;29629;52.532;13.352;2023-11-21T11:09:50;5.80;99.90
41262;DHT22;29629;52.532;13.352;2023-11-21T11:12:17;5.80;99.90
41262;DHT22;29629;52.532;13.352;2023-11-21T11:14:44;5.80;99.90
41262;DHT22;29629;52.532;13.352;2023-11-21T11:17:12;5.80;99.90
41262;DHT22;29629;52.532;13.352;2023-11-21T11:19:40;5.70;99.90
41262;DHT22;29629;52.532;13.352;2023-11-21T11:22:15;5.70;99.90
41262;DHT22;29629;52.532;13.352;2023-11-21T11:24:59;5.70;99.90
41262;DHT22;29629;52.532;13.352;2023-11-21T11:27:37;5.60;99.90
41262;DHT22;29629;52.532;13.352;2023-11-21T11:30:15;5.60;99.90
41262;DHT22;29629;52.532;13.352;2023-11-21T11:32:46;5.60;99.90
41262;DHT22;29629;52.532;13.352;2023-11-21T11:35:25;5.60;99.90
41262;DHT22;29629;52.532;13.352;2023-11-21T11:37:56;5.60;99.90
41262;DHT22;29629;52.532;13.352;2023-11-21T11:40:26;5.60;99.90
41262;DHT22;29629;52.532;13.352;2023-11-21T11:43:06;5.60;99.90
41262;DHT22;29629;52.532;13.352;2023-11-21T11:45:34;5.50;99.90
41262;DHT22;29629;52.532;13.352;2023-11-21T11:48:07;5.50;99.90
41262;DHT22;29629;52.532;13.352;2023-11-21T11:50:34;5.50;99.90
41262;DHT22;29629;52.532;13.352;2023-11-21T11:53:12;5.60;99.90
41262;DHT22;29629;52.532;13.352;2023-11-21T11:55:41;5.60;99.90
41262;DHT22;29629;52.532;13.352;2023-11-21T11:58:08;5.60;99.90
41262;DHT22;29629;52.532;13.352;2023-11-21T12:00:35;5.60;99.90
41262;DHT22;29629;52.532;13.352;2023-11-21T12:03:07;5.60;99.90
41262;DHT22;29629;52.532;13.352;2023-11-21T12:05:35;5.60;99.90
41262;DHT22;29629;52.532;13.352;2023-11-21T12:08:05;5.60;99.90
41262;DHT22;29629;52.532;13.352;2023-11-21T12:10:33;5.60;99.90
41262;DHT22;29629;52.532;13.352;2023-11-21T12:13:02;5.60;99.90
41262;DHT22;29629;52.532;13.352;2023-11-21T12:15:31;5.60;99.90
41262;DHT22;29629;52.532;13.352;2023-11-21T12:17:58;5.60;99.90
41262;DHT22;29629;52.532;13.352;2023-11-21T12:20:26;5.60;99.90
41262;DHT22;29629;52.532;13.352;2023-11-21T12:22:54;5.60;99.90
41262;DHT22;29629;52.532;13.352;2023-11-21T12:25:23;5.60;99.90
41262;DHT22;29629;52.532;13.352;2023-11-21T12:27:53;5.60;99.90
41262;DHT22;29629;52.532;13.352;2023-11-21T12:30:22;5.60;99.90
41262;DHT22;29629;52.532;13.352;2023-11-21T12:32:50;5.60;99.90
41262;DHT22;29629;52.532;13.352;2023-11-21T12:35:18;5.60;99.90
41262;DHT22;29629;52.532;13.352;2023-11-21T12:37:46;5.50;99.90
41262;DHT22;29629;52.532;13.352;2023-11-21T12:40:15;5.60;99.90
41262;DHT22;29629;52.532;13.352;2023-11-21T12:42:44;5.60;99.90
41262;DHT22;29629;52.532;13.352;2023-11-21T12:45:19;5.60;99.90
41262;DHT22;29629;52.532;13.352;2023-11-21T12:47:49;5.70;99.90
41262;DHT22;29629;52.532;13.352;2023-11-21T12:50:18;5.70;99.90
41262;DHT22;29629;52.532;13.352;2023-11-21T12:52:49;5.80;99.90
41262;DHT22;29629;52.532;13.352;2023-11-21T12:55:17;5.80;99.90
41262;DHT22;29629;52.532;13.352;2023-11-21T12:57:48;5.90;99.90
41262;DHT22;29629;52.532;13.352;2023-11-21T13:00:16;5.90;99.90
41262;DHT22;29629;52.532;13.352;2023-11-21T13:02:55;6.00;99.90
41262;DHT22;29629;52.532;13.352;2023-11-21T13:05:25;5.90;99.90
41262;DHT22;29629;52.532;13.352;2023-11-21T13:07:51;5.70;99.90
41262;DHT22;29629;52.532;13.352;2023-11-21T13:10:21;5.70;99.90
41262;DHT22;29629;52.532;13.352;2023-11-21T13:12:51;5.60;99.90
41262;DHT22;29629;52.532;13.352;2023-11-21T13:15:19;5.60;99.90
41262;DHT22;29629;52.532;13.352;2023-11-21T13:17:46;5.50;99.90
41262;DHT22;29629;52.532;13.352;2023-11-21T13:20:15;5.50;99.90
41262;DHT22;29629;52.532;13.352;2023-11-21T13:22:49;5.40;99.90
41262;DHT22;29629;52.532;13.352;2023-11-21T13:25:19;5.50;99.90
41262;DHT22;29629;52.532;13.352;2023-11-21T13:27:46;5.50;99.90
41262;DHT22;29629;52.532;13.352;2023-11-21T13:30:14;5.50;99.90
41262;DHT22;29629;52.532;13.352;2023-11-21T13:32:49;5.40;99.90
41262;DHT22;29629;52.532;13.352;2023-11-21T13:35:18;5.50;99.90
41262;DHT22;29629;52.532;13.352;2023-11-21T13:37:56;5.40;99.90
41262;DHT22;29629;52.532;13.352;2023-11-21T13:40:26;5.40;99.90
41262;DHT22;29629;52.532;13.352;2023-11-21T13:42:53;5.30;99.90
41262;DHT22;29629;52.532;13.352;2023-11-21T13:45:22;5.30;99.90
41262;DHT22;29629;52.532;13.352;2023-11-21T13:47:50;5.30;99.90
41262;DHT22;29629;52.532;13.352;2023-11-21T13:50:25;5.30;99.90
41262;DHT22;29629;52.532;13.352;2023-11-21T13:52:58;5.20;99.90
41262;DHT22;29629;52.532;13.352;2023-11-21T13:55:28;5.20;99.90
41262;DHT22;29629;52.532;13.352;2023-11-21T13:57:55;5.20;99.90
41262;DHT22;29629;52.532;13.352;2023-11-21T14:00:22;5.20;99.90
41262;DHT22;29629;52.532;13.352;2023-11-21T14:03:06;5.20;99.90
41262;DHT22;29629;52.532;13.352;2023-11-21T14:05:43;5.20;99.90
41262;DHT22;29629;52.532;13.352;2023-11-21T14:08:12;5.10;99.90
41262;DHT22;29629;52.532;13.352;2023-11-21T14:10:42;5.10;99.90
41262;DHT22;29629;52.532;13.352;2023-11-21T14:13:10;5.00;99.90
41262;DHT22;29629;52.532;13.352;2023-11-21T14:15:39;5.00;99.90
41262;DHT22;29629;52.532;13.352;2023-11-21T14:18:11;4.90;99.90
41262;DHT22;29629;52.532;13.352;2023-11-21T14:20:39;5.00;99.90
41262;DHT22;29629;52.532;13.352;2023-11-21T14:23:08;4.90;99.90
41262;DHT22;29629;52.532;13.352;2023-11-21T14:25:36;4.90;99.90
41262;DHT22;29629;52.532;13.352;2023-11-21T14:28:05;4.80;99.90
41262;DHT22;29629;52.532;13.352;2023-11-21T14:30:32;4.70;99.90
41262;DHT22;29629;52.532;13.352;2023-11-21T14:33:01;4.80;99.90
41262;DHT22;29629;52.532;13.352;2023-11-21T14:35:28;4.80;99.90
41262;DHT22;29629;52.532;13.352;2023-11-21T14:37:58;4.70;99.90
41262;DHT22;29629;52.532;13.352;2023-11-21T14:40:27;4.70;99.90
41262;DHT22;29629;52.532;13.352;2023-11-21T14:42:59;4.60;99.90
41262;DHT22;29629;52.532;13.352;2023-11-21T14:45:26;4.70;99.90
41262;DHT22;29629;52.532;13.352;2023-11-21T14:47:54;4.70;99.90
41262;DHT22;29629;52.532;13.352;2023-11-21T14:50:32;4.60;99.90
41262;DHT22;29629;52.532;13.352;2023-11-21T14:53:35;4.50;99.90
41262;DHT22;29629;52.532;13.352;2023-11-21T14:56:10;4.50;99.90
41262;DHT22;29629;52.532;13.352;2023-11-21T14:58:43;4.50;99.90
41262;DHT22;29629;52.532;13.352;2023-11-21T15:01:09;4.40;99.90
41262;DHT22;29629;52.532;13.352;2023-11-21T15:03:36;4.40;99.90
41262;DHT22;29629;52.532;13.352;2023-11-21T15:06:09;4.40;99.90
41262;DHT22;29629;52.532;13.352;2023-11-21T15:08:48;4.50;99.90
41262;DHT22;29629;52.532;13.352;2023-11-21T15:11:20;4.50;99.90
41262;DHT22;29629;52.532;13.352;2023-11-21T15:13:53;4.50;99.90
41262;DHT22;29629;52.532;13.352;2023-11-21T15:16:19;4.30;99.90
41262;DHT22;29629;52.532;13.352;2023-11-21T15:18:46;4.30;99.90
41262;DHT22;29629;52.532;13.352;2023-11-21T15:21:13;4.20;99.90
41262;DHT22;29629;52.532;13.352;2023-11-21T15:23:40;4.30;99.90
41262;DHT22;29629;52.532;13.352;2023-11-21T15:26:07;4.30;99.90
41262;DHT22;29629;52.532;13.352;2023-11-21T15:28:37;4.30;99.90
41262;DHT22;29629;52.532;13.352;2023-11-21T15:31:04;4.20;99.90
41262;DHT22;29629;52.532;13.352;2023-11-21T15:33:31;4.30;99.90
41262;DHT22;29629;52.532;13.352;2023-11-21T15:35:58;4.30;99.90
41262;DHT22;29629;52.532;13.352;2023-11-21T15:38:25;4.40;99.90
41262;DHT22;29629;52.532;13.352;2023-11-21T15:40:51;4.40;99.90